Hovedside
METAR-TAF:

METAR-TAF

Lufthavner :

Kuwait, Kuwait

breddegrad: 29-13N, lengdegrad: 047-59E, høyde over havet: 55 m

Gjeldene værobservasjon

Denne rapporten ble laget for 11 minutter siden, klokken 10:00 UTC
Vind 15 kt fra Nord-nordvest
Temperatur 43°C
Luftfuktighet 11%
Trykk 1004 hPa
Sikt 10 km eller mer
ingen skyer under 1500 m og ingen bygeskyer

METAR: OKBK 201000Z 34015KT CAVOK 43/06 Q1004 NOSIG

Tid: 13:11 (10:11 UTC)

Varsel

Denne rapporten ble laget for 5 timer og 26 minutter siden, klokken 04:45 UTC
Varsel gyldig fra 20. klokken 06 UTC til 21. klokken 12 UTC
Vind 12 kt fra Nord med vindkast opp mot 25 kt
Sikt: 6000 m
Midlertidig
fra 20. klokken 06 UTC til 20. klokken 14 UTC
Sikt: 3000 m
støvdrev
Sannsynlighet 30% :
Midlertidig
fra 20. klokken 09 UTC til 20. klokken 14 UTC
Sikt: 1000 m

TAF: OKBK 200445Z 2006/2112 35012G25KT 6000 NSC TEMPO 2006/2014 3000 BLDU PROB30 TEMPO 2009/2014 1000

Værobservasjoner og værvarsel for over 4000 flyplasser (METAR- og TAF-rapporter).

Tilgjengelige stasjoner er representert av de røde og gule prikkene på kartet.

Hold musepekeren over prikken for å se navnet på stasjonen.

Klikk så for å se værobservasjoner og -varsler.

For å forandre kartet kan du klikke på den grønne knappen med svart kryss for å zoome inn, på den grønne knappen med strek for å zoome ut, eller på de grønne pilene for å se tilstøtende kart.


METAR-TAF: